createdAt,value
2023-04-29T00:01:11.094Z,6.73
2023-04-29T00:03:45.161Z,6.76
2023-04-29T00:06:19.510Z,6.77
2023-04-29T00:08:52.980Z,6.80
2023-04-29T00:11:25.801Z,6.80
2023-04-29T00:13:58.867Z,6.76
2023-04-29T00:16:31.397Z,6.79
2023-04-29T00:19:04.545Z,6.77
2023-04-29T00:21:38.985Z,6.72
2023-04-29T00:24:12.186Z,6.69
2023-04-29T00:26:44.655Z,6.71
2023-04-29T00:29:17.938Z,6.66
2023-04-29T00:31:51.030Z,6.68
2023-04-29T00:34:24.452Z,6.70
2023-04-29T00:36:58.543Z,6.65
2023-04-29T00:39:31.605Z,6.64
2023-04-29T00:42:04.328Z,6.68
2023-04-29T00:44:37.139Z,6.61
2023-04-29T00:47:11.699Z,6.62
2023-04-29T00:49:45.179Z,6.64
2023-04-29T00:52:21.067Z,6.69
2023-04-29T00:54:54.110Z,6.68
2023-04-29T00:57:30.287Z,6.69
2023-04-29T01:00:04.478Z,6.58
2023-04-29T01:02:41.176Z,6.69
2023-04-29T01:05:15.665Z,6.67
2023-04-29T01:07:59.447Z,6.66
2023-04-29T01:10:38.619Z,6.64
2023-04-29T01:13:18.512Z,6.65
2023-04-29T01:16:02.815Z,6.65
2023-04-29T01:18:41.515Z,6.60
2023-04-29T01:21:16.113Z,6.59
2023-04-29T01:23:56.209Z,6.65
2023-04-29T01:26:35.768Z,6.65
2023-04-29T01:29:34.442Z,6.67
2023-04-29T01:32:14.309Z,6.56
2023-04-29T01:34:55.314Z,6.67
2023-04-29T01:37:42.529Z,6.66
2023-04-29T01:40:22.932Z,6.65
2023-04-29T01:43:16.273Z,6.66
2023-04-29T01:45:56.290Z,6.63
2023-04-29T01:48:30.301Z,6.64
2023-04-29T01:51:03.192Z,6.64
2023-04-29T01:53:35.991Z,6.64
2023-04-29T01:56:09.959Z,6.66
2023-04-29T01:59:03.482Z,6.68
2023-04-29T02:01:54.445Z,6.65
2023-04-29T02:04:29.162Z,6.66
2023-04-29T02:07:04.218Z,6.67
2023-04-29T02:09:37.732Z,6.72
2023-04-29T02:12:16.796Z,6.75
2023-04-29T02:14:53.812Z,6.73
2023-04-29T02:17:26.711Z,6.79
2023-04-29T02:19:59.351Z,6.80
2023-04-29T02:22:32.440Z,6.81
2023-04-29T02:25:07.078Z,6.77
2023-04-29T02:27:41.392Z,6.77
2023-04-29T02:30:14.176Z,6.75
2023-04-29T02:32:47.194Z,6.82
2023-04-29T02:35:20.749Z,6.84
2023-04-29T02:37:53.769Z,6.87
2023-04-29T02:40:27.588Z,6.89
2023-04-29T02:43:02.106Z,6.86
2023-04-29T02:45:34.746Z,6.92
2023-04-29T02:48:08.291Z,6.93
2023-04-29T02:50:40.910Z,6.95
2023-04-29T02:53:14.216Z,6.96
2023-04-29T02:55:47.356Z,6.94
2023-04-29T02:58:22.698Z,6.91
2023-04-29T03:00:55.274Z,6.95
2023-04-29T03:03:28.738Z,6.90
2023-04-29T03:06:01.846Z,6.93
2023-04-29T03:08:35.977Z,6.93
2023-04-29T03:11:09.011Z,6.85
2023-04-29T03:13:42.984Z,6.93
2023-04-29T03:16:17.154Z,6.96
2023-04-29T03:18:50.413Z,6.98
2023-04-29T03:21:23.933Z,6.93
2023-04-29T03:23:56.937Z,7.01
2023-04-29T03:26:35.590Z,7.00
2023-04-29T03:29:11.440Z,6.99
2023-04-29T03:31:44.192Z,6.99
2023-04-29T03:34:17.249Z,7.00
2023-04-29T03:36:55.884Z,7.07
2023-04-29T03:39:32.516Z,7.07
2023-04-29T03:42:05.309Z,7.10
2023-04-29T03:44:40.540Z,7.12
2023-04-29T03:47:14.060Z,7.15
2023-04-29T03:49:47.113Z,7.18
2023-04-29T03:52:19.931Z,7.21
2023-04-29T03:54:56.003Z,7.19
2023-04-29T03:57:28.734Z,7.38
2023-04-29T04:00:03.827Z,7.43
2023-04-29T04:02:47.067Z,7.46
2023-04-29T04:05:21.708Z,7.46
2023-04-29T04:08:00.915Z,7.49
2023-04-29T04:10:40.239Z,7.51
2023-04-29T04:13:23.979Z,7.50
2023-04-29T04:15:58.352Z,7.48
2023-04-29T04:18:31.554Z,7.54
2023-04-29T04:21:08.523Z,7.48
2023-04-29T04:23:42.732Z,7.51
2023-04-29T04:26:18.732Z,7.52
2023-04-29T04:29:06.055Z,7.55
2023-04-29T04:32:00.578Z,7.61
2023-04-29T04:34:33.896Z,7.67
2023-04-29T04:37:08.969Z,7.70
2023-04-29T04:39:42.940Z,7.76
2023-04-29T04:42:19.095Z,7.78
2023-04-29T04:44:54.066Z,7.74
2023-04-29T04:47:51.958Z,7.88
2023-04-29T04:50:31.173Z,7.87
2023-04-29T04:53:04.388Z,7.97
2023-04-29T04:55:50.092Z,7.97
2023-04-29T04:58:23.769Z,7.95
2023-04-29T05:00:56.571Z,8.06
2023-04-29T05:03:30.986Z,8.07
2023-04-29T05:06:06.431Z,8.21
2023-04-29T05:08:38.974Z,8.29
2023-04-29T05:11:18.740Z,8.35
2023-04-29T05:13:58.470Z,8.39
2023-04-29T05:16:32.861Z,8.44
2023-04-29T05:19:06.942Z,8.52
2023-04-29T05:21:43.179Z,8.48
2023-04-29T05:24:17.886Z,8.73
2023-04-29T05:26:52.434Z,8.98
2023-04-29T05:29:27.668Z,9.17
2023-04-29T05:32:05.158Z,9.29
2023-04-29T05:34:39.081Z,9.38
2023-04-29T05:37:12.674Z,9.47
2023-04-29T05:40:02.692Z,9.59
2023-04-29T05:42:37.208Z,9.68
2023-04-29T05:45:10.937Z,9.82
2023-04-29T05:47:43.664Z,10.02
2023-04-29T05:50:18.406Z,10.14
2023-04-29T05:52:52.051Z,10.17
2023-04-29T05:55:25.174Z,10.10
2023-04-29T05:57:58.309Z,10.00
2023-04-29T06:00:31.916Z,10.02
2023-04-29T06:03:13.146Z,10.02
2023-04-29T06:05:48.099Z,10.00
2023-04-29T06:08:39.691Z,10.10
2023-04-29T06:11:27.457Z,10.23
2023-04-29T06:14:00.296Z,10.22
2023-04-29T06:16:34.021Z,10.11
2023-04-29T06:19:07.000Z,10.12
2023-04-29T06:21:41.561Z,10.12
2023-04-29T06:24:14.084Z,10.12
2023-04-29T06:26:47.371Z,10.27
2023-04-29T06:29:19.977Z,10.51
2023-04-29T06:31:53.335Z,10.80
2023-04-29T06:34:26.864Z,11.10
2023-04-29T06:37:30.000Z,11.28
2023-04-29T06:40:32.691Z,11.19
2023-04-29T06:43:26.923Z,11.12
2023-04-29T06:46:39.469Z,10.89
2023-04-29T06:49:22.554Z,10.72
2023-04-29T06:51:55.624Z,10.73
2023-04-29T06:54:33.684Z,10.75
2023-04-29T06:57:06.525Z,10.71
2023-04-29T06:59:39.801Z,10.74
2023-04-29T07:02:12.765Z,10.79
2023-04-29T07:04:46.235Z,10.68
2023-04-29T07:07:22.012Z,10.62
2023-04-29T07:09:56.394Z,10.71
2023-04-29T07:12:30.441Z,10.75
2023-04-29T07:15:03.182Z,10.70
2023-04-29T07:17:38.129Z,10.90
2023-04-29T07:20:11.688Z,10.84
2023-04-29T07:22:44.840Z,10.81
2023-04-29T07:25:19.948Z,10.88
2023-04-29T07:27:53.519Z,10.88
2023-04-29T07:30:26.289Z,10.92
2023-04-29T07:32:59.590Z,10.90
2023-04-29T07:35:32.173Z,10.87
2023-04-29T07:38:04.978Z,10.85
2023-04-29T07:40:38.886Z,10.89
2023-04-29T07:43:12.164Z,10.96
2023-04-29T07:45:45.192Z,11.01
2023-04-29T07:48:17.857Z,11.06
2023-04-29T07:50:52.050Z,11.12
2023-04-29T07:53:24.606Z,11.04
2023-04-29T07:55:58.985Z,11.18
2023-04-29T07:58:32.402Z,11.07
2023-04-29T08:01:09.697Z,11.20
2023-04-29T08:03:42.734Z,11.19
2023-04-29T08:06:20.966Z,11.23
2023-04-29T08:08:55.342Z,11.10
2023-04-29T08:11:29.330Z,11.18
2023-04-29T08:14:02.625Z,11.18
2023-04-29T08:16:36.032Z,11.22
2023-04-29T08:19:09.330Z,11.21
2023-04-29T08:21:42.838Z,11.19
2023-04-29T08:24:16.033Z,11.24
2023-04-29T08:26:49.935Z,11.32
2023-04-29T08:29:23.563Z,11.37
2023-04-29T08:31:56.049Z,11.38
2023-04-29T08:34:28.921Z,11.40
2023-04-29T08:37:01.744Z,11.33
2023-04-29T08:39:35.345Z,11.31
2023-04-29T08:42:12.706Z,11.34
2023-04-29T08:44:46.609Z,11.42
2023-04-29T08:47:20.067Z,11.52
2023-04-29T08:49:54.559Z,11.50
2023-04-29T08:52:27.206Z,11.71
2023-04-29T08:55:03.063Z,11.72
2023-04-29T08:57:47.312Z,11.72
2023-04-29T09:00:20.578Z,11.64
2023-04-29T09:02:57.995Z,11.58
2023-04-29T09:05:32.270Z,11.53
2023-04-29T09:08:05.661Z,11.49
2023-04-29T09:10:39.120Z,11.69
2023-04-29T09:13:29.026Z,11.76
2023-04-29T09:16:02.627Z,11.88
2023-04-29T09:18:48.992Z,11.93
2023-04-29T09:21:29.315Z,11.74
2023-04-29T09:24:06.085Z,11.87
2023-04-29T09:26:51.751Z,11.99
2023-04-29T09:29:30.066Z,12.01
2023-04-29T09:32:20.883Z,12.09
2023-04-29T09:34:53.606Z,12.13
2023-04-29T09:37:28.711Z,12.17
2023-04-29T09:40:04.977Z,12.25
2023-04-29T09:42:43.590Z,12.26
2023-04-29T09:45:39.610Z,12.26
2023-04-29T09:48:16.049Z,12.22
2023-04-29T09:51:04.930Z,12.36
2023-04-29T09:53:39.452Z,12.42
2023-04-29T09:56:12.483Z,12.46
2023-04-29T09:58:49.708Z,12.58
2023-04-29T10:01:30.974Z,12.64
2023-04-29T10:04:05.118Z,12.70
2023-04-29T10:06:38.742Z,12.67
2023-04-29T10:09:18.522Z,12.84
2023-04-29T10:11:53.135Z,12.89
2023-04-29T10:14:35.885Z,12.91
2023-04-29T10:17:16.528Z,12.96
2023-04-29T10:19:59.145Z,12.96
2023-04-29T10:22:36.822Z,12.96
2023-04-29T10:25:12.026Z,12.93
2023-04-29T10:27:46.266Z,12.85
2023-04-29T10:30:20.221Z,12.78
2023-04-29T10:32:58.571Z,12.74
2023-04-29T10:35:36.849Z,12.82
2023-04-29T10:38:19.195Z,12.84
2023-04-29T10:40:53.820Z,12.89
2023-04-29T10:43:30.585Z,12.93
2023-04-29T10:46:22.089Z,12.96
2023-04-29T10:49:01.870Z,12.95
2023-04-29T10:51:40.169Z,12.98
2023-04-29T10:54:15.001Z,13.08
2023-04-29T10:56:55.826Z,13.09
2023-04-29T10:59:46.455Z,13.00
2023-04-29T11:02:26.600Z,12.83
2023-04-29T11:05:16.002Z,13.02
2023-04-29T11:08:08.830Z,13.08
2023-04-29T11:10:42.391Z,13.14
2023-04-29T11:13:22.736Z,13.08
2023-04-29T11:16:05.113Z,13.15
2023-04-29T11:19:05.901Z,13.04
2023-04-29T11:21:40.663Z,13.10
2023-04-29T11:24:15.699Z,13.13
2023-04-29T11:26:52.647Z,13.23
2023-04-29T11:29:26.836Z,13.37
2023-04-29T11:32:00.731Z,13.41
2023-04-29T11:34:33.789Z,13.56
2023-04-29T11:37:08.398Z,13.60
2023-04-29T11:39:40.970Z,13.65
2023-04-29T11:42:14.195Z,13.68
2023-04-29T11:44:46.982Z,13.57
2023-04-29T11:47:21.524Z,13.69
2023-04-29T11:49:55.126Z,13.59
2023-04-29T11:52:32.156Z,13.69
2023-04-29T11:55:05.628Z,13.58
2023-04-29T11:57:40.717Z,13.56
2023-04-29T12:00:14.370Z,13.50
2023-04-29T12:02:48.903Z,13.40
2023-04-29T12:05:21.955Z,13.39
2023-04-29T12:07:57.087Z,13.34
2023-04-29T12:10:31.175Z,13.46
2023-04-29T12:13:04.776Z,13.55
2023-04-29T12:15:39.586Z,13.63
2023-04-29T12:18:13.648Z,13.68
2023-04-29T12:20:48.297Z,13.69
2023-04-29T12:23:27.045Z,13.43
2023-04-29T12:26:00.730Z,13.70
2023-04-29T12:28:35.367Z,13.69
2023-04-29T12:31:09.836Z,13.69
2023-04-29T12:33:47.048Z,13.68
2023-04-29T12:36:19.828Z,13.59
2023-04-29T12:38:56.370Z,13.61
2023-04-29T12:41:38.107Z,13.56
2023-04-29T12:44:11.846Z,13.59
2023-04-29T12:46:44.669Z,13.62
2023-04-29T12:49:19.223Z,13.64
2023-04-29T12:51:52.537Z,13.56
2023-04-29T12:54:26.726Z,13.62
2023-04-29T12:57:00.104Z,13.62
2023-04-29T12:59:32.604Z,13.59
2023-04-29T13:02:05.822Z,13.52
2023-04-29T13:04:40.075Z,13.61
2023-04-29T13:07:13.207Z,13.64
2023-04-29T13:09:47.421Z,13.67
2023-04-29T13:12:19.893Z,13.72
2023-04-29T13:14:54.055Z,13.76
2023-04-29T13:17:28.841Z,13.77
2023-04-29T13:20:01.952Z,13.78
2023-04-29T13:22:37.426Z,13.76
2023-04-29T13:25:16.508Z,13.74
2023-04-29T13:27:49.947Z,13.74
2023-04-29T13:30:22.882Z,13.71
2023-04-29T13:33:12.127Z,13.62
2023-04-29T13:35:49.387Z,13.52
2023-04-29T13:38:22.922Z,13.50
2023-04-29T13:40:57.822Z,13.37
2023-04-29T13:43:37.829Z,13.35
2023-04-29T13:46:12.458Z,13.29
2023-04-29T13:49:17.342Z,13.18
2023-04-29T13:57:40.179Z,13.30
2023-04-29T13:59:52.517Z,13.37
2023-04-29T14:02:26.650Z,13.43
2023-04-29T14:04:59.648Z,13.49
2023-04-29T14:07:33.189Z,13.54
2023-04-29T14:10:06.750Z,13.53
2023-04-29T14:12:43.465Z,13.62
2023-04-29T14:15:16.455Z,13.65
2023-04-29T14:17:50.782Z,13.69
2023-04-29T14:20:23.532Z,13.73
2023-04-29T14:22:56.804Z,13.77
2023-04-29T14:25:30.492Z,13.78
2023-04-29T14:28:06.374Z,13.74
2023-04-29T14:30:38.888Z,13.71
2023-04-29T14:33:12.045Z,13.75
2023-04-29T14:35:46.563Z,13.78
2023-04-29T14:38:22.588Z,13.78
2023-04-29T14:40:55.268Z,13.77
2023-04-29T14:43:29.942Z,13.73
2023-04-29T14:46:02.504Z,13.74
2023-04-29T14:48:35.812Z,13.72
2023-04-29T14:51:08.454Z,13.71
2023-04-29T14:53:41.699Z,13.70
2023-04-29T14:56:14.207Z,13.67
2023-04-29T14:58:48.730Z,13.65
2023-04-29T15:01:21.604Z,13.55
2023-04-29T15:03:55.210Z,13.55
2023-04-29T15:06:31.467Z,13.55
2023-04-29T15:09:05.514Z,13.53
2023-04-29T15:11:41.395Z,13.49
2023-04-29T15:14:15.718Z,13.45
2023-04-29T15:16:49.306Z,13.42
2023-04-29T15:19:25.584Z,13.38
2023-04-29T15:21:58.187Z,13.34
2023-04-29T15:24:31.160Z,13.31
2023-04-29T15:27:04.173Z,13.31
2023-04-29T15:29:38.847Z,13.28
2023-04-29T15:32:11.937Z,13.26
2023-04-29T15:34:45.358Z,13.13
2023-04-29T15:37:17.839Z,13.18
2023-04-29T15:39:51.129Z,13.19
2023-04-29T15:42:24.079Z,13.18
2023-04-29T15:44:57.961Z,13.14
2023-04-29T15:47:31.089Z,13.16
2023-04-29T15:50:03.826Z,13.12
2023-04-29T15:52:37.130Z,13.10
2023-04-29T15:55:10.016Z,13.08
2023-04-29T15:57:43.259Z,13.05
2023-04-29T16:00:20.222Z,13.03
2023-04-29T16:02:54.250Z,13.02
2023-04-29T16:05:27.058Z,13.01
2023-04-29T16:08:00.164Z,12.99
2023-04-29T16:10:33.091Z,12.96
2023-04-29T16:13:06.446Z,12.86
2023-04-29T16:15:41.068Z,12.90
2023-04-29T16:18:15.030Z,12.88
2023-04-29T16:20:48.090Z,12.86
2023-04-29T16:23:21.235Z,12.82
2023-04-29T16:25:54.692Z,12.78
2023-04-29T16:28:27.906Z,12.74
2023-04-29T16:31:01.880Z,12.70
2023-04-29T16:33:34.964Z,12.66
2023-04-29T16:36:08.014Z,12.63
2023-04-29T16:38:41.144Z,12.49
2023-04-29T16:41:14.190Z,12.53
2023-04-29T16:43:47.508Z,12.41
2023-04-29T16:46:21.820Z,12.45
2023-04-29T16:48:56.912Z,12.37
2023-04-29T16:51:29.934Z,12.32
2023-04-29T16:54:02.894Z,12.26
2023-04-29T16:56:35.461Z,12.18
2023-04-29T16:59:08.372Z,12.11
2023-04-29T17:01:43.150Z,12.05
2023-04-29T17:04:16.555Z,11.89
2023-04-29T17:06:49.189Z,11.91
2023-04-29T17:09:26.381Z,11.84
2023-04-29T17:11:58.860Z,11.76
2023-04-29T17:14:31.635Z,11.69
2023-04-29T17:17:06.251Z,11.61
2023-04-29T17:19:39.631Z,11.52
2023-04-29T17:22:12.065Z,11.44
2023-04-29T17:24:46.555Z,11.35
2023-04-29T17:27:19.535Z,11.26
2023-04-29T17:29:53.397Z,11.19
2023-04-29T17:32:30.715Z,11.11
2023-04-29T17:35:03.862Z,10.94
2023-04-29T17:37:36.685Z,10.94
2023-04-29T17:40:11.458Z,10.85
2023-04-29T17:42:46.802Z,10.75
2023-04-29T17:45:19.610Z,10.69
2023-04-29T17:47:54.092Z,10.58
2023-04-29T17:50:27.245Z,10.57
2023-04-29T17:53:00.468Z,10.51
2023-04-29T17:55:33.003Z,10.42
2023-04-29T17:58:06.484Z,10.38
2023-04-29T18:00:39.394Z,10.12
2023-04-29T18:03:13.427Z,10.16
2023-04-29T18:05:47.878Z,10.07
2023-04-29T18:08:23.612Z,9.92
2023-04-29T18:10:56.463Z,9.96
2023-04-29T18:13:29.353Z,9.80
2023-04-29T18:16:02.322Z,9.80
2023-04-29T18:18:37.777Z,9.73
2023-04-29T18:21:10.614Z,9.67
2023-04-29T18:23:43.432Z,9.62
2023-04-29T18:26:16.229Z,9.55
2023-04-29T18:28:49.857Z,9.45
2023-04-29T18:31:25.130Z,9.43
2023-04-29T18:33:59.750Z,9.35
2023-04-29T18:36:32.910Z,9.27
2023-04-29T18:39:06.090Z,9.21
2023-04-29T18:41:39.515Z,9.17
2023-04-29T18:44:13.028Z,9.06
2023-04-29T18:46:45.580Z,9.10
2023-04-29T18:49:20.104Z,9.04
2023-04-29T18:51:52.544Z,8.97
2023-04-29T18:54:25.821Z,8.94
2023-04-29T18:56:58.934Z,8.78
2023-04-29T18:59:32.029Z,8.75
2023-04-29T19:02:06.232Z,8.68
2023-04-29T19:04:41.540Z,8.60
2023-04-29T19:07:14.235Z,8.50
2023-04-29T19:09:47.372Z,8.46
2023-04-29T19:12:19.924Z,8.39
2023-04-29T19:14:53.268Z,8.33
2023-04-29T19:17:26.298Z,8.27
2023-04-29T19:20:00.298Z,8.17
2023-04-29T19:22:33.153Z,8.18
2023-04-29T19:25:06.834Z,8.11
2023-04-29T19:27:41.092Z,8.02
2023-04-29T19:30:14.410Z,8.02
2023-04-29T19:32:47.370Z,7.96
2023-04-29T19:35:22.252Z,7.93
2023-04-29T19:37:54.992Z,7.86
2023-04-29T19:40:28.085Z,7.87
2023-04-29T19:43:01.650Z,7.79
2023-04-29T19:45:39.100Z,7.77
2023-04-29T19:48:12.332Z,7.73
2023-04-29T19:50:46.396Z,7.61
2023-04-29T19:53:19.695Z,7.60
2023-04-29T19:55:54.378Z,7.42
2023-04-29T19:58:27.731Z,7.23
2023-04-29T20:01:00.496Z,7.43
2023-04-29T20:03:36.882Z,7.39
2023-04-29T20:06:11.895Z,7.35
2023-04-29T20:08:45.107Z,7.27
2023-04-29T20:11:17.939Z,7.23
2023-04-29T20:13:51.285Z,7.01
2023-04-29T20:16:24.316Z,7.04
2023-04-29T20:18:57.438Z,7.02
2023-04-29T20:21:31.576Z,7.04
2023-04-29T20:24:04.869Z,7.00
2023-04-29T20:26:40.068Z,6.95
2023-04-29T20:29:13.141Z,6.94
2023-04-29T20:31:46.206Z,6.73
2023-04-29T20:34:19.587Z,6.83
2023-04-29T20:36:53.389Z,6.77
2023-04-29T20:39:26.339Z,6.70
2023-04-29T20:41:59.456Z,6.67
2023-04-29T20:44:35.206Z,6.55
2023-04-29T20:47:08.088Z,6.62
2023-04-29T20:49:41.396Z,6.53
2023-04-29T20:52:15.654Z,6.57
2023-04-29T20:54:49.056Z,6.52
2023-04-29T20:57:21.729Z,6.49
2023-04-29T20:59:55.107Z,6.36
2023-04-29T21:02:28.360Z,6.39
2023-04-29T21:05:01.764Z,6.18
2023-04-29T21:07:39.504Z,6.34
2023-04-29T21:10:12.937Z,6.27
2023-04-29T21:12:45.813Z,6.28
2023-04-29T21:15:18.829Z,6.25
2023-04-29T21:17:51.942Z,6.22
2023-04-29T21:20:24.933Z,6.18
2023-04-29T21:22:59.955Z,6.14
2023-04-29T21:25:33.316Z,6.02
2023-04-29T21:28:05.873Z,6.07
2023-04-29T21:30:38.676Z,5.95
2023-04-29T21:33:11.506Z,5.95
2023-04-29T21:35:51.414Z,5.94
2023-04-29T21:38:25.775Z,5.85
2023-04-29T21:41:01.051Z,5.86
2023-04-29T21:43:33.712Z,5.80
2023-04-29T21:46:07.698Z,5.73
2023-04-29T21:48:41.185Z,5.69
2023-04-29T21:51:13.722Z,5.58
2023-04-29T21:53:48.065Z,5.71
2023-04-29T21:56:22.775Z,5.69
2023-04-29T21:58:55.592Z,5.64
2023-04-29T22:01:43.433Z,5.60
2023-04-29T22:04:17.557Z,5.53
2023-04-29T22:06:50.698Z,5.49
2023-04-29T22:09:26.109Z,5.47
2023-04-29T22:11:59.295Z,5.36
2023-04-29T22:14:32.233Z,5.42
2023-04-29T22:17:05.114Z,5.34
2023-04-29T22:19:37.927Z,5.35
2023-04-29T22:22:11.340Z,5.37
2023-04-29T22:24:45.318Z,5.33
2023-04-29T22:27:18.560Z,5.29
2023-04-29T22:29:51.101Z,5.22
2023-04-29T22:32:24.381Z,5.05
2023-04-29T22:34:59.958Z,5.13
2023-04-29T22:37:33.197Z,5.10
2023-04-29T22:40:08.887Z,5.05
2023-04-29T22:42:43.409Z,5.06
2023-04-29T22:45:16.150Z,5.02
2023-04-29T22:47:49.560Z,5.02
2023-04-29T22:50:22.432Z,5.02
2023-04-29T22:52:54.888Z,4.99
2023-04-29T22:55:29.458Z,4.95
2023-04-29T22:58:01.883Z,4.90
2023-04-29T23:00:34.918Z,4.87
2023-04-29T23:03:07.432Z,4.83
2023-04-29T23:05:40.610Z,4.78
2023-04-29T23:08:13.016Z,4.73
2023-04-29T23:10:52.442Z,4.70
2023-04-29T23:13:25.841Z,4.66
2023-04-29T23:16:00.506Z,4.63
2023-04-29T23:18:33.905Z,4.50
2023-04-29T23:21:07.311Z,4.45
2023-04-29T23:23:40.480Z,4.61
2023-04-29T23:26:14.639Z,4.57
2023-04-29T23:28:47.561Z,4.59
2023-04-29T23:31:20.047Z,4.54
2023-04-29T23:33:53.221Z,4.49
2023-04-29T23:36:26.167Z,4.47
2023-04-29T23:38:59.039Z,4.43
2023-04-29T23:41:33.418Z,4.41
2023-04-29T23:44:06.231Z,4.44
2023-04-29T23:46:38.756Z,4.40
2023-04-29T23:49:11.741Z,4.40
2023-04-29T23:51:44.482Z,4.40
2023-04-29T23:54:17.532Z,4.34
2023-04-29T23:56:51.453Z,4.26
2023-04-29T23:59:24.637Z,4.36
